Yamato — JD2252 — position and weather

sailwx.info

Track history (hours):
 
Tides and Currents Weather Stations Pressure Air Temp Water Temp Dewpoint Dewpoint Depression Visibility Wind Speed Wind Dir Waves Ship Positions

Yamato

Last reported at 2014-Oct-24 07:11 UTC. Time now 2014-Oct-24 10:23 UTC.
Position N 35°27' E 139°40'.

Length 40 m; draft 3.6 m.

Type: Tug. MMSI: 431101141.

Date/timePositionNaut miles runAvg speedWind from/ knotsBaromVisibWave heightAir tempDewpointWater temp
2014-Oct-24 07:11N 35°27' E 139°40'0 0.4
2014-Oct-24 06:33N 35°27' E 139°40'1 1.0
2014-Oct-24 05:33N 35°27' E 139°41'1 1.3
2014-Oct-24 04:33N 35°27' E 139°39'0 0.0
2014-Oct-24 03:33N 35°27' E 139°39'0 0.0
2014-Oct-24 02:33N 35°27' E 139°39'0 0.0
2014-Oct-24 01:33N 35°27' E 139°39'0 0.0
2014-Oct-24 00:33N 35°27' E 139°39'0 0.0
2014-Oct-23 23:33N 35°27' E 139°39'4 4.1
2014-Oct-23 22:33N 35°30' E 139°43'2 1.5
2014-Oct-23 21:33N 35°29' E 139°42'2 1.6
2014-Oct-23 20:33N 35°27' E 139°42'2 2.2
2014-Oct-23 19:33N 35°27' E 139°40'0 0.0
2014-Oct-23 18:33N 35°27' E 139°40'0 0.0
2014-Oct-23 17:33N 35°27' E 139°40'0 0.0
2014-Oct-23 16:33N 35°27' E 139°40'0 0.0
2014-Oct-23 15:33N 35°27' E 139°40'0 0.0
2014-Oct-23 14:33N 35°27' E 139°40'0 0.0
2014-Oct-23 13:33N 35°27' E 139°40'0 0.0
2014-Oct-23 12:33N 35°27' E 139°40'0 0.0
2014-Oct-23 11:34N 35°27' E 139°40'0 0.0
2014-Oct-23 10:34N 35°27' E 139°40'0 0.0
2014-Oct-23 09:33N 35°27' E 139°40'0 0.0
2014-Oct-23 08:33N 35°27' E 139°40'0 0.0
2014-Oct-23 07:33N 35°27' E 139°40'1 1.0
2014-Oct-23 06:33N 35°28' E 139°41'0 0.0
2014-Oct-23 05:33N 35°28' E 139°41'0 0.0
2014-Oct-23 04:33N 35°28' E 139°41'0 0.0
2014-Oct-23 03:33N 35°28' E 139°41'0 0.0
2014-Oct-23 02:33N 35°28' E 139°41'0 0.0
2014-Oct-23 01:33N 35°28' E 139°41'5 4.5
2014-Oct-23 00:33N 35°30' E 139°45'1 0.8
2014-Oct-22 23:33N 35°30' E 139°44'3 2.7
2014-Oct-22 22:33N 35°28' E 139°46'4 3.7
2014-Oct-22 21:33N 35°32' E 139°46'7 6.8
2014-Oct-22 20:33N 35°27' E 139°40'0 0.0
2014-Oct-22 09:34N 35°27' E 139°40'2 1.5
2014-Oct-22 08:34N 35°28' E 139°39'5 4.9
2014-Oct-22 07:34N 35°24' E 139°42'2 1.7
2014-Oct-22 06:34N 35°23' E 139°40'0 0.0
2014-Oct-22 05:33N 35°23' E 139°40'0 0.0
2014-Oct-22 04:34N 35°23' E 139°40'1 1.5
2014-Oct-22 03:34N 35°25' E 139°39'5 4.5
2014-Oct-22 02:33N 35°26' E 139°44'2 2.1
2014-Oct-22 01:34N 35°28' E 139°44'0 0.0
2014-Oct-22 00:34N 35°28' E 139°44'2 1.8
2014-Oct-21 23:34N 35°29' E 139°42'3 2.5
2014-Oct-21 22:34N 35°27' E 139°40'0 0.2
2014-Oct-21 21:34N 35°27' E 139°40'0 0.0
2014-Oct-21 20:34N 35°27' E 139°40'0 0.0
2014-Oct-21 09:11N 35°27' E 139°40'1 0.9
2014-Oct-21 08:34N 35°27' E 139°40'1 0.6
2014-Oct-21 07:33N 35°27' E 139°40'0 0.0
2014-Oct-21 06:33N 35°27' E 139°40'0 0.0
2014-Oct-21 05:33N 35°27' E 139°40'0 0.0
2014-Oct-21 04:33N 35°27' E 139°40'1 1.5
2014-Oct-21 03:34N 35°28' E 139°41'3 3.3
2014-Oct-21 02:33N 35°30' E 139°44'3 2.8
2014-Oct-21 01:33N 35°27' E 139°43'3 2.7
2014-Oct-21 00:33N 35°27' E 139°40'0 0.0
2014-Oct-20 23:33N 35°27' E 139°40'0 0.0
2014-Oct-20 22:33N 35°27' E 139°40'0 0.0
2014-Oct-20 21:33N 35°27' E 139°40'2 0.2
2014-Oct-20 09:33N 35°27' E 139°42'1 0.6
2014-Oct-20 08:33N 35°28' E 139°42'0 0.2
2014-Oct-20 07:33N 35°27' E 139°42'4 4.2
2014-Oct-20 06:31N 35°29' E 139°47'0 0.3
2014-Oct-20 05:32N 35°30' E 139°47'8 3.5
2014-Oct-20 03:14N 35°29' E 139°57'0 0.1
2014-Oct-19 23:28N 35°30' E 139°58'1011.2
2014-Oct-19 22:34N 35°27' E 139°46'5 5.0
2014-Oct-19 21:34N 35°27' E 139°40'0 0.0
2014-Oct-19 20:33N 35°27' E 139°40'0 0.0
2014-Oct-18 08:23N 35°27' E 139°40'1 1.7
2014-Oct-18 07:34N 35°27' E 139°41'1 1.3
2014-Oct-18 06:33N 35°27' E 139°40'0 0.0
2014-Oct-18 05:33N 35°27' E 139°40'0 0.0
2014-Oct-18 04:33N 35°27' E 139°40'0 0.0
2014-Oct-18 03:34N 35°27' E 139°40'7 6.7
2014-Oct-18 02:33N 35°31' E 139°46'4 4.2
2014-Oct-18 01:33N 35°29' E 139°42'2 1.7
2014-Oct-18 00:33N 35°27' E 139°41'1 1.5
2014-Oct-17 23:34N 35°27' E 139°39'0 0.0
2014-Oct-17 22:33N 35°27' E 139°39'1 0.9
2014-Oct-17 21:34N 35°27' E 139°41'1 0.8
2014-Oct-17 20:33N 35°27' E 139°40'0 0.0
2014-Oct-17 12:22N 35°27' E 139°40'1 1.8
2014-Oct-17 11:34N 35°28' E 139°39'5 4.7
2014-Oct-17 10:33N 35°26' E 139°44'2 1.9
2014-Oct-17 09:34N 35°26' E 139°42'2 1.7
2014-Oct-17 08:34N 35°27' E 139°40'1 0.9
2014-Oct-17 07:33N 35°28' E 139°41'2 1.7
2014-Oct-17 06:34N 35°27' E 139°39'4 3.6
2014-Oct-17 05:34N 35°29' E 139°43'3 2.6
2014-Oct-17 04:34N 35°27' E 139°43'3 2.7
2014-Oct-17 03:33N 35°27' E 139°40'0 0.0
2014-Oct-17 02:33N 35°27' E 139°40'0 0.0
2014-Oct-17 01:34N 35°27' E 139°40'0 0.0
2014-Oct-17 00:34N 35°27' E 139°40'0 0.0
2014-Oct-16 23:34N 35°27' E 139°40'0 0.0
2014-Oct-16 22:34N 35°27' E 139°40'2 0.1
2014-Oct-15 18:24N 35°27' E 139°42'1 1.0
2014-Oct-15 17:33N 35°28' E 139°42'0 0.3
2014-Oct-15 16:34N 35°28' E 139°42'2 2.3
2014-Oct-15 15:33N 35°29' E 139°44'0 0.0
2014-Oct-15 14:19N 35°29' E 139°44'2 2.3
2014-Oct-15 13:34N 35°27' E 139°45'1 1.4
2014-Oct-15 12:33N 35°28' E 139°44'3 3.3
2014-Oct-15 11:34N 35°26' E 139°40'1 1.5
2014-Oct-15 10:34N 35°27' E 139°42'0 0.0
2014-Oct-15 09:34N 35°27' E 139°42'2 1.5
2014-Oct-15 08:34N 35°28' E 139°41'2 1.6
2014-Oct-15 07:33N 35°27' E 139°40'0 0.0
2014-Oct-15 06:34N 35°27' E 139°40'0 0.0
2014-Oct-15 05:33N 35°27' E 139°40'0 0.0
2014-Oct-15 04:34N 35°27' E 139°40'0 0.0
2014-Oct-15 03:34N 35°27' E 139°40'0 0.0
2014-Oct-15 02:34N 35°27' E 139°40'0 0.0
2014-Oct-15 01:34N 35°27' E 139°40'0 0.0
2014-Oct-15 00:33N 35°27' E 139°40'0 0.0
2014-Oct-14 23:33N 35°27' E 139°40'0 0.0
2014-Oct-14 22:34N 35°27' E 139°40'  
Track history (hours):
 
Tides and Currents Weather Stations Pressure Air Temp Water Temp Dewpoint Dewpoint Depression Visibility Wind Speed Wind Dir Waves Ship Positions

Yamato

Last reported at 2014-Oct-24 07:11 UTC. Time now 2014-Oct-24 10:23 UTC.
Position N 35°27' E 139°40'.

Length 40 m; draft 3.6 m.

Type: Tug. MMSI: 431101141.

Date/timePositionNaut miles runAvg speedWind from/ knotsBaromVisibWave heightAir tempDewpointWater temp
2014-Oct-24 07:11N 35°27' E 139°40'0 0.4
2014-Oct-24 06:33N 35°27' E 139°40'1 1.0
2014-Oct-24 05:33N 35°27' E 139°41'1 1.3
2014-Oct-24 04:33N 35°27' E 139°39'0 0.0
2014-Oct-24 03:33N 35°27' E 139°39'0 0.0
2014-Oct-24 02:33N 35°27' E 139°39'0 0.0
2014-Oct-24 01:33N 35°27' E 139°39'0 0.0
2014-Oct-24 00:33N 35°27' E 139°39'0 0.0
2014-Oct-23 23:33N 35°27' E 139°39'4 4.1
2014-Oct-23 22:33N 35°30' E 139°43'2 1.5
2014-Oct-23 21:33N 35°29' E 139°42'2 1.6
2014-Oct-23 20:33N 35°27' E 139°42'2 2.2
2014-Oct-23 19:33N 35°27' E 139°40'0 0.0
2014-Oct-23 18:33N 35°27' E 139°40'0 0.0
2014-Oct-23 17:33N 35°27' E 139°40'0 0.0
2014-Oct-23 16:33N 35°27' E 139°40'0 0.0
2014-Oct-23 15:33N 35°27' E 139°40'0 0.0
2014-Oct-23 14:33N 35°27' E 139°40'0 0.0
2014-Oct-23 13:33N 35°27' E 139°40'0 0.0
2014-Oct-23 12:33N 35°27' E 139°40'0 0.0
2014-Oct-23 11:34N 35°27' E 139°40'0 0.0
2014-Oct-23 10:34N 35°27' E 139°40'0 0.0
2014-Oct-23 09:33N 35°27' E 139°40'0 0.0
2014-Oct-23 08:33N 35°27' E 139°40'0 0.0
2014-Oct-23 07:33N 35°27' E 139°40'1 1.0
2014-Oct-23 06:33N 35°28' E 139°41'0 0.0
2014-Oct-23 05:33N 35°28' E 139°41'0 0.0
2014-Oct-23 04:33N 35°28' E 139°41'0 0.0
2014-Oct-23 03:33N 35°28' E 139°41'0 0.0
2014-Oct-23 02:33N 35°28' E 139°41'0 0.0
2014-Oct-23 01:33N 35°28' E 139°41'5 4.5
2014-Oct-23 00:33N 35°30' E 139°45'1 0.8
2014-Oct-22 23:33N 35°30' E 139°44'3 2.7
2014-Oct-22 22:33N 35°28' E 139°46'4 3.7
2014-Oct-22 21:33N 35°32' E 139°46'7 6.8
2014-Oct-22 20:33N 35°27' E 139°40'0 0.0
2014-Oct-22 09:34N 35°27' E 139°40'2 1.5
2014-Oct-22 08:34N 35°28' E 139°39'5 4.9
2014-Oct-22 07:34N 35°24' E 139°42'2 1.7
2014-Oct-22 06:34N 35°23' E 139°40'0 0.0
2014-Oct-22 05:33N 35°23' E 139°40'0 0.0
2014-Oct-22 04:34N 35°23' E 139°40'1 1.5
2014-Oct-22 03:34N 35°25' E 139°39'5 4.5
2014-Oct-22 02:33N 35°26' E 139°44'2 2.1
2014-Oct-22 01:34N 35°28' E 139°44'0 0.0
2014-Oct-22 00:34N 35°28' E 139°44'2 1.8
2014-Oct-21 23:34N 35°29' E 139°42'3 2.5
2014-Oct-21 22:34N 35°27' E 139°40'0 0.2
2014-Oct-21 21:34N 35°27' E 139°40'0 0.0
2014-Oct-21 20:34N 35°27' E 139°40'0 0.0
2014-Oct-21 09:11N 35°27' E 139°40'1 0.9
2014-Oct-21 08:34N 35°27' E 139°40'1 0.6
2014-Oct-21 07:33N 35°27' E 139°40'0 0.0
2014-Oct-21 06:33N 35°27' E 139°40'0 0.0
2014-Oct-21 05:33N 35°27' E 139°40'0 0.0
2014-Oct-21 04:33N 35°27' E 139°40'1 1.5
2014-Oct-21 03:34N 35°28' E 139°41'3 3.3
2014-Oct-21 02:33N 35°30' E 139°44'3 2.8
2014-Oct-21 01:33N 35°27' E 139°43'3 2.7
2014-Oct-21 00:33N 35°27' E 139°40'0 0.0
2014-Oct-20 23:33N 35°27' E 139°40'0 0.0
2014-Oct-20 22:33N 35°27' E 139°40'0 0.0
2014-Oct-20 21:33N 35°27' E 139°40'2 0.2
2014-Oct-20 09:33N 35°27' E 139°42'1 0.6
2014-Oct-20 08:33N 35°28' E 139°42'0 0.2
2014-Oct-20 07:33N 35°27' E 139°42'4 4.2
2014-Oct-20 06:31N 35°29' E 139°47'0 0.3
2014-Oct-20 05:32N 35°30' E 139°47'8 3.5
2014-Oct-20 03:14N 35°29' E 139°57'0 0.1
2014-Oct-19 23:28N 35°30' E 139°58'1011.2
2014-Oct-19 22:34N 35°27' E 139°46'5 5.0
2014-Oct-19 21:34N 35°27' E 139°40'0 0.0
2014-Oct-19 20:33N 35°27' E 139°40'0 0.0
2014-Oct-18 08:23N 35°27' E 139°40'1 1.7
2014-Oct-18 07:34N 35°27' E 139°41'1 1.3
2014-Oct-18 06:33N 35°27' E 139°40'0 0.0
2014-Oct-18 05:33N 35°27' E 139°40'0 0.0
2014-Oct-18 04:33N 35°27' E 139°40'0 0.0
2014-Oct-18 03:34N 35°27' E 139°40'7 6.7
2014-Oct-18 02:33N 35°31' E 139°46'4 4.2
2014-Oct-18 01:33N 35°29' E 139°42'2 1.7
2014-Oct-18 00:33N 35°27' E 139°41'1 1.5
2014-Oct-17 23:34N 35°27' E 139°39'0 0.0
2014-Oct-17 22:33N 35°27' E 139°39'1 0.9
2014-Oct-17 21:34N 35°27' E 139°41'1 0.8
2014-Oct-17 20:33N 35°27' E 139°40'0 0.0
2014-Oct-17 12:22N 35°27' E 139°40'1 1.8
2014-Oct-17 11:34N 35°28' E 139°39'5 4.7
2014-Oct-17 10:33N 35°26' E 139°44'2 1.9
2014-Oct-17 09:34N 35°26' E 139°42'2 1.7
2014-Oct-17 08:34N 35°27' E 139°40'1 0.9
2014-Oct-17 07:33N 35°28' E 139°41'2 1.7
2014-Oct-17 06:34N 35°27' E 139°39'4 3.6
2014-Oct-17 05:34N 35°29' E 139°43'3 2.6
2014-Oct-17 04:34N 35°27' E 139°43'3 2.7
2014-Oct-17 03:33N 35°27' E 139°40'0 0.0
2014-Oct-17 02:33N 35°27' E 139°40'0 0.0
2014-Oct-17 01:34N 35°27' E 139°40'0 0.0
2014-Oct-17 00:34N 35°27' E 139°40'0 0.0
2014-Oct-16 23:34N 35°27' E 139°40'0 0.0
2014-Oct-16 22:34N 35°27' E 139°40'2 0.1
2014-Oct-15 18:24N 35°27' E 139°42'1 1.0
2014-Oct-15 17:33N 35°28' E 139°42'0 0.3
2014-Oct-15 16:34N 35°28' E 139°42'2 2.3
2014-Oct-15 15:33N 35°29' E 139°44'0 0.0
2014-Oct-15 14:19N 35°29' E 139°44'2 2.3
2014-Oct-15 13:34N 35°27' E 139°45'1 1.4
2014-Oct-15 12:33N 35°28' E 139°44'3 3.3
2014-Oct-15 11:34N 35°26' E 139°40'1 1.5
2014-Oct-15 10:34N 35°27' E 139°42'0 0.0
2014-Oct-15 09:34N 35°27' E 139°42'2 1.5
2014-Oct-15 08:34N 35°28' E 139°41'2 1.6
2014-Oct-15 07:33N 35°27' E 139°40'0 0.0
2014-Oct-15 06:34N 35°27' E 139°40'0 0.0
2014-Oct-15 05:33N 35°27' E 139°40'0 0.0
2014-Oct-15 04:34N 35°27' E 139°40'0 0.0
2014-Oct-15 03:34N 35°27' E 139°40'0 0.0
2014-Oct-15 02:34N 35°27' E 139°40'0 0.0
2014-Oct-15 01:34N 35°27' E 139°40'0 0.0
2014-Oct-15 00:33N 35°27' E 139°40'0 0.0
2014-Oct-14 23:33N 35°27' E 139°40'0 0.0
2014-Oct-14 22:34N 35°27' E 139°40'  

Dump ship's entire track history